Time;durP1;ratioP1;P1;durP2;ratioP2;P2;SDS_P1;SDS_P2;PMS_P1;PMS_P2;Temp;Humidity;BMP_temperature;BMP_pressure;BME280_temperature;BME280_humidity;BME280_pressure;Samples;Min_cycle;Max_cycle;Signal;HPM_P1;HPM_P2
2023/11/13 00:01:09;;;;;;;;;;;;;;;6.29;81.99;100417.73;106422;1258;125718;-86
2023/11/13 00:03:48;;;;;;;;;;;;;;;6.30;82.00;100419.13;106508;1257;75410;-87
2023/11/13 00:06:15;;;;;;;;;;;;;;;6.32;82.07;100413.48;106724;1257;66103;-85
2023/11/13 00:08:42;;;;;;;;;;;;;;;6.34;82.01;100416.13;106862;1257;126067;-86
2023/11/13 00:11:09;;;;;;;;;;;;;;;6.36;82.04;100410.27;106821;1256;62160;-84
2023/11/13 00:13:36;;;;;;;;;;;;;;;6.37;81.99;100411.39;106367;1264;125170;-84
2023/11/13 00:16:03;;;;;;;;;;;;;;;6.39;81.94;100409.70;106503;1257;75735;-84
2023/11/13 00:18:31;;;;;;;;;;;;;;;6.39;81.90;100409.70;106156;1257;124360;-85
2023/11/13 00:20:59;;;;;;;;;;;;;;;6.40;81.92;100409.73;106244;1264;71590;-86
2023/11/13 00:23:27;;;;;;;;;;;;;;;6.39;81.89;100410.95;106363;1257;62086;-87
2023/11/13 00:25:54;;;;;;;;;;;;;;;6.38;81.85;100410.71;106192;1257;125052;-87
2023/11/13 00:28:21;;;;;;;;;;;;;;;6.36;81.80;100411.70;106431;1257;74630;-85
2023/11/13 00:30:48;;;;;;;;;;;;;;;6.35;81.76;100415.48;106409;1257;124381;-87
2023/11/13 00:33:16;;;;;;;;;;;;;;;6.33;81.70;100420.12;106350;1258;71390;-87
2023/11/13 00:35:44;;;;;;;;;;;;;;;6.30;81.74;100419.83;106345;1257;62219;-87
2023/11/13 00:38:10;;;;;;;;;;;;;;;6.30;81.81;100425.40;106377;1258;125078;-87
2023/11/13 00:40:37;;;;;;;;;;;;;;;6.28;81.77;100425.86;106577;1261;75313;-86
2023/11/13 00:43:04;;;;;;;;;;;;;;;6.27;81.86;100428.77;106380;1258;125419;-86
2023/11/13 00:45:31;;;;;;;;;;;;;;;6.25;81.84;100430.78;106329;1264;73164;-87
2023/11/13 00:47:58;;;;;;;;;;;;;;;6.23;81.82;100428.63;106336;1258;62100;-86
2023/11/13 00:50:25;;;;;;;;;;;;;;;6.22;81.92;100431.92;106301;1264;125264;-86
2023/11/13 00:52:52;;;;;;;;;;;;;;;6.21;81.91;100431.72;106514;1257;75531;-86
2023/11/13 00:55:18;;;;;;;;;;;;;;;6.20;81.91;100431.84;106265;1258;124497;-85
2023/11/13 00:57:45;;;;;;;;;;;;;;;6.19;81.93;100434.27;106577;1259;71458;-86
2023/11/13 01:00:13;;;;;;;;;;;;;;;6.18;81.93;100437.84;106570;1259;61992;-85
2023/11/13 01:02:40;;;;;;;;;;;;;;;6.16;82.02;100440.56;106239;1258;123002;-85
2023/11/13 01:05:06;;;;;;;;;;;;;;;6.14;82.04;100441.04;106309;1258;75479;-85
2023/11/13 01:07:33;;;;;;;;;;;;;;;6.13;82.04;100442.55;106357;1257;124237;-85
2023/11/13 01:10:00;;;;;;;;;;;;;;;6.10;82.11;100442.44;106543;1257;71071;-83
2023/11/13 01:12:27;;;;;;;;;;;;;;;6.09;82.11;100444.29;106309;1258;125527;-85
2023/11/13 01:14:53;;;;;;;;;;;;;;;6.07;82.12;100447.71;106330;1260;62028;-86
2023/11/13 01:17:20;;;;;;;;;;;;;;;6.05;82.16;100443.47;106395;1259;74214;-86
2023/11/13 01:19:47;;;;;;;;;;;;;;;6.05;82.20;100449.92;106315;1260;124970;-86
2023/11/13 01:22:13;;;;;;;;;;;;;;;6.05;82.20;100448.35;106354;1258;72709;-86
2023/11/13 01:24:40;;;;;;;;;;;;;;;6.04;82.32;100446.40;106242;1263;125232;-86
2023/11/13 01:27:07;;;;;;;;;;;;;;;6.06;82.34;100450.27;106220;1258;62066;-86
2023/11/13 01:29:33;;;;;;;;;;;;;;;6.07;82.39;100451.20;106230;1259;75440;-85
2023/11/13 01:32:00;;;;;;;;;;;;;;;6.08;82.46;100451.75;106222;1259;125447;-85
2023/11/13 01:34:27;;;;;;;;;;;;;;;6.10;82.50;100451.33;106298;1258;72368;-85
2023/11/13 01:36:54;;;;;;;;;;;;;;;6.12;82.42;100453.48;106107;1264;125461;-85
2023/11/13 01:39:20;;;;;;;;;;;;;;;6.13;82.50;100452.33;106350;1261;62066;-85
2023/11/13 01:41:47;;;;;;;;;;;;;;;6.15;82.40;100452.38;106368;1258;74235;-84
2023/11/13 01:44:14;;;;;;;;;;;;;;;6.16;82.41;100455.57;106271;1258;125333;-84
2023/11/13 01:46:41;;;;;;;;;;;;;;;6.17;82.32;100457.16;106438;1261;72847;-85
2023/11/13 01:49:08;;;;;;;;;;;;;;;6.19;82.47;100455.48;106133;1258;125196;-84
2023/11/13 01:51:35;;;;;;;;;;;;;;;6.20;82.43;100459.39;106377;1260;61992;-83
2023/11/13 01:54:01;;;;;;;;;;;;;;;6.22;82.44;100461.18;106484;1258;74411;-82
2023/11/13 01:56:29;;;;;;;;;;;;;;;6.23;82.38;100458.94;106342;1261;125036;-82
2023/11/13 01:58:56;;;;;;;;;;;;;;;6.25;82.41;100462.34;106491;1261;72856;-83
2023/11/13 02:01:24;;;;;;;;;;;;;;;6.28;82.46;100458.94;106137;1258;125528;-84
2023/11/13 02:03:50;;;;;;;;;;;;;;;6.29;82.44;100463.38;106364;1259;62499;-86
2023/11/13 02:06:17;;;;;;;;;;;;;;;6.32;82.43;100465.73;106248;1258;75524;-83
2023/11/13 02:08:44;;;;;;;;;;;;;;;6.33;82.36;100469.80;106266;1264;124856;-83
2023/11/13 02:11:10;;;;;;;;;;;;;;;6.34;82.34;100470.53;106358;1260;72725;-84
2023/11/13 02:13:38;;;;;;;;;;;;;;;6.36;82.29;100468.70;106165;1264;125402;-85
2023/11/13 02:16:05;;;;;;;;;;;;;;;6.37;82.21;100468.17;106355;1258;62519;-86
2023/11/13 02:18:35;;;;;;;;;;;;;;;6.35;82.21;100467.95;106297;1261;125358;-86
2023/11/13 02:21:02;;;;;;;;;;;;;;;6.36;82.25;100473.37;106306;1258;65405;-86
2023/11/13 02:23:28;;;;;;;;;;;;;;;6.37;82.29;100475.16;106095;1265;72775;-86
2023/11/13 02:25:56;;;;;;;;;;;;;;;6.37;82.16;100472.19;106273;1259;125068;-84
2023/11/13 02:28:23;;;;;;;;;;;;;;;6.36;82.11;100476.35;106176;1261;62113;-83
2023/11/13 02:30:50;;;;;;;;;;;;;;;6.35;82.13;100473.52;106190;1260;125866;-83
2023/11/13 02:33:16;;;;;;;;;;;;;;;6.34;82.09;100472.26;106332;1264;65656;-83
2023/11/13 02:35:43;;;;;;;;;;;;;;;6.34;82.17;100470.52;106369;1259;71429;-83
2023/11/13 02:38:10;;;;;;;;;;;;;;;6.36;82.11;100469.02;106223;1266;125476;-83
2023/11/13 02:40:36;;;;;;;;;;;;;;;6.36;82.19;100468.33;106376;1260;62075;-82
2023/11/13 02:43:03;;;;;;;;;;;;;;;6.36;82.11;100470.58;106154;1263;125426;-83
2023/11/13 02:45:30;;;;;;;;;;;;;;;6.36;82.06;100469.55;106226;1264;66298;-83
2023/11/13 02:47:56;;;;;;;;;;;;;;;6.37;82.08;100467.66;106317;1258;71413;-83
2023/11/13 02:50:27;;;;;;;;;;;;;;;6.39;82.12;100473.30;106279;1264;123950;-82
2023/11/13 02:52:54;;;;;;;;;;;;;;;6.40;82.13;100470.94;106372;1260;62075;-86
2023/11/13 02:55:20;;;;;;;;;;;;;;;6.42;82.08;100472.92;106258;1258;125964;-87
2023/11/13 02:57:48;;;;;;;;;;;;;;;6.43;82.19;100472.95;106535;1258;66358;-87
2023/11/13 03:00:15;;;;;;;;;;;;;;;6.46;82.14;100474.08;106481;1258;71807;-87
2023/11/13 03:02:42;;;;;;;;;;;;;;;6.47;82.10;100475.69;106267;1258;124864;-87
2023/11/13 03:05:09;;;;;;;;;;;;;;;6.44;82.00;100478.20;106432;1258;62050;-83
2023/11/13 03:07:36;;;;;;;;;;;;;;;6.42;82.03;100476.77;106289;1258;125075;-83
2023/11/13 03:10:03;;;;;;;;;;;;;;;6.41;82.04;100478.64;106527;1257;63973;-83
2023/11/13 03:12:30;;;;;;;;;;;;;;;6.41;81.96;100478.45;106117;1265;125415;-83
2023/11/13 03:14:56;;;;;;;;;;;;;;;6.41;82.02;100474.43;106435;1258;62542;-83
2023/11/13 03:17:23;;;;;;;;;;;;;;;6.38;81.95;100474.89;106299;1261;62106;-83
2023/11/13 03:19:50;;;;;;;;;;;;;;;6.36;82.04;100478.80;106195;1263;124838;-83
2023/11/13 03:22:16;;;;;;;;;;;;;;;6.34;82.08;100479.59;106383;1258;64917;-83
2023/11/13 03:24:44;;;;;;;;;;;;;;;6.33;82.00;100480.08;106049;1258;125055;-82
2023/11/13 03:27:11;;;;;;;;;;;;;;;6.34;82.10;100481.85;106319;1259;62129;-83
2023/11/13 03:29:38;;;;;;;;;;;;;;;6.35;82.20;100482.60;106418;1264;62140;-83
2023/11/13 03:32:05;;;;;;;;;;;;;;;6.36;82.23;100483.48;106473;1259;124854;-83
2023/11/13 03:34:32;;;;;;;;;;;;;;;6.36;82.22;100479.50;106407;1258;64995;-85
2023/11/13 03:36:59;;;;;;;;;;;;;;;6.40;82.29;100477.17;106261;1258;124969;-85
2023/11/13 03:39:26;;;;;;;;;;;;;;;6.41;82.36;100477.08;106405;1263;62166;-85
2023/11/13 03:41:52;;;;;;;;;;;;;;;6.44;82.41;100478.73;106350;1259;62101;-86
2023/11/13 03:44:19;;;;;;;;;;;;;;;6.46;82.38;100480.02;106326;1258;124420;-84
2023/11/13 03:46:46;;;;;;;;;;;;;;;6.45;82.32;100478.44;106266;1258;66285;-83
2023/11/13 03:49:12;;;;;;;;;;;;;;;6.41;82.17;100476.35;106120;1258;124405;-82
2023/11/13 03:51:39;;;;;;;;;;;;;;;6.35;82.08;100475.80;106363;1259;62059;-82
2023/11/13 03:54:06;;;;;;;;;;;;;;;6.30;81.97;100474.19;106182;1260;62415;-81
2023/11/13 03:56:33;;;;;;;;;;;;;;;6.24;82.11;100464.90;106309;1261;124234;-82
2023/11/13 03:59:00;;;;;;;;;;;;;;;6.17;82.04;100466.06;106241;1258;67238;-82
2023/11/13 04:01:26;;;;;;;;;;;;;;;6.13;82.18;100464.15;106035;1262;124288;-83
2023/11/13 04:03:53;;;;;;;;;;;;;;;6.08;82.19;100465.15;106155;1261;62171;-83
2023/11/13 04:06:20;;;;;;;;;;;;;;;6.01;82.22;100467.16;106410;1259;60232;-83
2023/11/13 04:08:47;;;;;;;;;;;;;;;5.95;82.23;100467.80;106183;1264;75487;-83
2023/11/13 04:11:13;;;;;;;;;;;;;;;5.90;82.36;100471.25;106293;1261;65456;-82
2023/11/13 04:13:40;;;;;;;;;;;;;;;5.86;82.42;100472.33;106069;1258;125094;-83
2023/11/13 04:16:07;;;;;;;;;;;;;;;5.83;82.52;100473.92;106105;1264;61970;-83
2023/11/13 04:18:33;;;;;;;;;;;;;;;5.82;82.62;100471.10;106090;1263;125129;-84
2023/11/13 04:21:00;;;;;;;;;;;;;;;5.82;82.62;100468.48;106287;1261;74453;-83
2023/11/13 04:23:27;;;;;;;;;;;;;;;5.81;82.79;100468.11;106308;1258;64783;-83
2023/11/13 04:25:54;;;;;;;;;;;;;;;5.83;82.84;100468.72;106005;1263;125533;-83
2023/11/13 04:28:21;;;;;;;;;;;;;;;5.84;82.88;100463.19;106354;1259;62125;-83
2023/11/13 04:30:47;;;;;;;;;;;;;;;5.87;83.00;100460.31;106095;1258;125542;-83
2023/11/13 04:33:14;;;;;;;;;;;;;;;5.86;82.94;100457.86;106205;1259;74046;-83
2023/11/13 04:35:41;;;;;;;;;;;;;;;5.87;82.93;100463.65;106353;1258;65001;-83
2023/11/13 04:38:07;;;;;;;;;;;;;;;5.88;82.96;100460.38;106233;1258;125219;-87
2023/11/13 04:40:34;;;;;;;;;;;;;;;5.89;82.93;100463.54;106422;1259;60065;-88
2023/11/13 04:43:01;;;;;;;;;;;;;;;5.88;82.89;100463.33;106250;1258;125385;-86
2023/11/13 04:45:29;;;;;;;;;;;;;;;5.87;82.99;100465.38;106530;1261;75522;-86
2023/11/13 04:47:55;;;;;;;;;;;;;;;5.89;83.01;100470.67;106436;1261;65289;-86
2023/11/13 04:50:22;;;;;;;;;;;;;;;5.91;83.01;100465.86;106285;1258;125303;-85
2023/11/13 04:52:49;;;;;;;;;;;;;;;5.91;83.03;100469.87;106403;1257;60093;-86
2023/11/13 04:55:16;;;;;;;;;;;;;;;5.90;82.96;100467.57;106277;1263;124334;-86
2023/11/13 04:57:43;;;;;;;;;;;;;;;5.88;82.90;100466.81;106382;1262;75725;-86
2023/11/13 05:00:10;;;;;;;;;;;;;;;5.88;83.03;100467.85;106602;1259;65090;-84
2023/11/13 05:02:38;;;;;;;;;;;;;;;5.89;83.04;100471.36;106715;1257;125226;-85
2023/11/13 05:05:04;;;;;;;;;;;;;;;5.89;82.97;100472.08;106518;1259;62120;-84
2023/11/13 05:07:31;;;;;;;;;;;;;;;5.90;83.05;100469.84;106420;1258;125306;-84
2023/11/13 05:09:58;;;;;;;;;;;;;;;5.91;83.02;100467.60;106455;1261;74196;-85
2023/11/13 05:12:24;;;;;;;;;;;;;;;5.91;83.01;100470.77;106628;1257;125216;-84
2023/11/13 05:14:51;;;;;;;;;;;;;;;5.89;82.83;100468.42;106677;1259;71196;-85
2023/11/13 05:17:17;;;;;;;;;;;;;;;5.89;82.89;100471.71;106612;1259;62155;-83
2023/11/13 05:19:44;;;;;;;;;;;;;;;5.87;82.86;100474.60;106539;1262;126344;-83
2023/11/13 05:22:11;;;;;;;;;;;;;;;5.85;82.89;100475.40;106515;1259;76035;-82
2023/11/13 05:24:38;;;;;;;;;;;;;;;5.84;82.92;100480.09;106421;1258;125231;-84
2023/11/13 05:27:05;;;;;;;;;;;;;;;5.84;82.92;100482.52;106411;1257;72511;-83
2023/11/13 05:29:32;;;;;;;;;;;;;;;5.82;82.86;100484.34;106494;1258;62183;-83
2023/11/13 05:31:58;;;;;;;;;;;;;;;5.80;82.91;100483.72;106560;1261;126224;-87
2023/11/13 05:34:25;;;;;;;;;;;;;;;5.79;82.97;100486.64;106469;1258;73946;-85
2023/11/13 05:36:52;;;;;;;;;;;;;;;5.77;82.99;100488.31;106415;1260;125374;-83
2023/11/13 05:39:21;;;;;;;;;;;;;;;5.74;83.05;100482.63;106562;1257;72561;-84
2023/11/13 05:41:48;;;;;;;;;;;;;;;5.73;82.97;100482.77;106468;1257;62026;-84
2023/11/13 05:44:14;;;;;;;;;;;;;;;5.72;82.97;100480.45;106348;1259;125253;-89
2023/11/13 05:46:41;;;;;;;;;;;;;;;5.70;83.04;100482.09;106341;1262;74254;-81
2023/11/13 05:49:08;;;;;;;;;;;;;;;5.68;83.06;100481.68;106335;1258;125109;-80
2023/11/13 05:51:34;;;;;;;;;;;;;;;5.67;83.04;100483.74;106315;1257;72757;-82
2023/11/13 05:54:01;;;;;;;;;;;;;;;5.66;83.08;100484.75;106265;1261;62044;-86
2023/11/13 05:56:28;;;;;;;;;;;;;;;5.65;83.10;100483.48;106379;1261;127792;-86
2023/11/13 05:58:54;;;;;;;;;;;;;;;5.64;83.11;100478.05;106457;1258;74545;-88
2023/11/13 06:01:21;;;;;;;;;;;;;;;5.63;83.21;100476.63;106287;1263;125027;-86
2023/11/13 06:03:48;;;;;;;;;;;;;;;5.65;83.32;100483.15;106362;1260;72747;-87
2023/11/13 06:06:14;;;;;;;;;;;;;;;5.65;83.23;100485.23;106150;1260;62170;-84
2023/11/13 06:08:41;;;;;;;;;;;;;;;5.65;83.30;100489.58;106376;1258;125100;-82
2023/11/13 06:11:08;;;;;;;;;;;;;;;5.64;83.22;100492.66;106257;1263;74215;-83
2023/11/13 06:13:35;;;;;;;;;;;;;;;5.63;83.28;100494.54;106313;1260;125272;-84
2023/11/13 06:16:02;;;;;;;;;;;;;;;5.62;83.30;100499.55;107018;1264;71081;-88
2023/11/13 06:18:29;;;;;;;;;;;;;;;5.63;83.34;100496.80;106385;1260;125292;-90
2023/11/13 06:20:56;;;;;;;;;;;;;;;5.63;83.42;100499.98;106269;1266;62036;-88
2023/11/13 06:23:23;;;;;;;;;;;;;;;5.64;83.35;100501.91;106453;1260;74976;-89
2023/11/13 06:25:50;;;;;;;;;;;;;;;5.67;83.49;100502.02;106583;1260;125363;-84
2023/11/13 06:28:17;;;;;;;;;;;;;;;5.67;83.39;100499.60;106649;1259;74213;-88
2023/11/13 06:30:44;;;;;;;;;;;;;;;5.69;83.38;100501.90;106536;1262;125939;-85
2023/11/13 06:33:10;;;;;;;;;;;;;;;5.71;83.43;100505.29;106575;1261;62183;-86
2023/11/13 06:35:37;;;;;;;;;;;;;;;5.74;83.49;100500.73;106622;1261;73847;-85
2023/11/13 06:38:04;;;;;;;;;;;;;;;5.79;83.54;100503.92;106795;1259;125079;-85
2023/11/13 06:40:31;;;;;;;;;;;;;;;5.83;83.37;100508.05;106651;1262;72842;-84
2023/11/13 06:42:57;;;;;;;;;;;;;;;5.84;83.16;100511.23;106433;1258;125185;-84
2023/11/13 06:45:24;;;;;;;;;;;;;;;5.86;83.19;100514.11;106450;1263;62078;-84
2023/11/13 06:47:51;;;;;;;;;;;;;;;5.89;83.18;100514.23;106415;1258;75392;-84
2023/11/13 06:50:19;;;;;;;;;;;;;;;5.91;83.13;100516.55;106684;1261;125650;-84
2023/11/13 06:52:45;;;;;;;;;;;;;;;5.95;83.14;100517.24;106458;1261;72753;-84
2023/11/13 06:55:14;;;;;;;;;;;;;;;5.99;83.16;100520.23;106474;1263;125202;-80
2023/11/13 06:57:42;;;;;;;;;;;;;;;6.06;83.23;100525.20;106663;1263;62182;-81
2023/11/13 07:00:09;;;;;;;;;;;;;;;6.11;83.09;100528.00;106784;1263;74496;-80
2023/11/13 07:02:39;;;;;;;;;;;;;;;6.16;83.04;100526.97;106209;1261;125357;-80
2023/11/13 07:05:11;;;;;;;;;;;;;;;6.20;82.92;100531.67;106303;1260;72552;-81
2023/11/13 07:07:37;;;;;;;;;;;;;;;6.24;82.90;100534.63;106361;1259;124660;-80
2023/11/13 07:10:04;;;;;;;;;;;;;;;6.30;82.90;100528.93;106391;1259;62120;-80
2023/11/13 07:12:31;;;;;;;;;;;;;;;6.36;82.84;100531.06;106307;1261;124611;-80
2023/11/13 07:14:58;;;;;;;;;;;;;;;6.40;82.79;100532.26;106355;1262;66549;-80
2023/11/13 07:17:25;;;;;;;;;;;;;;;6.43;82.58;100535.34;106309;1263;72330;-80
2023/11/13 07:19:51;;;;;;;;;;;;;;;6.44;82.50;100532.59;106088;1263;124512;-81
2023/11/13 07:22:18;;;;;;;;;;;;;;;6.48;82.58;100529.77;106178;1264;62088;-80
2023/11/13 07:24:46;;;;;;;;;;;;;;;6.52;82.47;100532.36;106061;1263;124858;-79
2023/11/13 07:27:12;;;;;;;;;;;;;;;6.56;82.45;100533.02;106258;1258;67266;-80
2023/11/13 07:29:39;;;;;;;;;;;;;;;6.59;82.44;100533.33;106179;1263;72654;-80
2023/11/13 07:32:06;;;;;;;;;;;;;;;6.63;82.37;100531.56;106326;1258;124267;-79
2023/11/13 07:34:33;;;;;;;;;;;;;;;6.67;82.37;100536.95;106268;1263;62553;-80
2023/11/13 07:36:59;;;;;;;;;;;;;;;6.72;82.35;100536.78;106130;1263;124987;-79
2023/11/13 07:39:27;;;;;;;;;;;;;;;6.77;82.30;100531.04;106388;1263;66310;-80
2023/11/13 07:41:56;;;;;;;;;;;;;;;6.80;82.25;100532.90;106301;1262;71459;-79
2023/11/13 07:44:23;;;;;;;;;;;;;;;6.85;82.15;100531.30;106338;1257;124467;-80
2023/11/13 07:46:53;;;;;;;;;;;;;;;6.89;82.14;100530.23;106212;1259;62014;-80
2023/11/13 07:49:20;;;;;;;;;;;;;;;6.95;82.15;100533.94;106256;1262;125063;-80
2023/11/13 07:51:47;;;;;;;;;;;;;;;7.01;82.17;100534.16;106368;1257;64987;-80
2023/11/13 07:54:13;;;;;;;;;;;;;;;7.11;82.22;100536.80;106343;1261;72594;-80
2023/11/13 07:56:40;;;;;;;;;;;;;;;7.22;82.17;100533.86;106085;1265;124700;-80
2023/11/13 07:59:08;;;;;;;;;;;;;;;7.35;82.13;100538.84;106309;1259;62629;-80
2023/11/13 08:01:34;;;;;;;;;;;;;;;7.47;82.08;100538.90;106293;1258;125528;-80
2023/11/13 08:04:01;;;;;;;;;;;;;;;7.58;82.00;100539.63;106449;1258;65612;-80
2023/11/13 08:06:29;;;;;;;;;;;;;;;7.68;81.83;100542.58;106298;1257;126318;-82
2023/11/13 08:08:55;;;;;;;;;;;;;;;7.81;81.83;100543.52;106336;1263;62110;-81
2023/11/13 08:11:23;;;;;;;;;;;;;;;7.93;81.74;100542.70;106297;1258;62066;-81
2023/11/13 08:13:49;;;;;;;;;;;;;;;8.04;81.58;100546.03;106298;1259;125006;-82
2023/11/13 08:16:18;;;;;;;;;;;;;;;8.13;81.36;100546.84;106287;1257;62097;-80
2023/11/13 08:18:45;;;;;;;;;;;;;;;8.25;81.26;100548.95;106231;1263;125419;-80
2023/11/13 08:21:13;;;;;;;;;;;;;;;8.33;80.95;100547.62;106297;1258;60810;-80
2023/11/13 08:23:40;;;;;;;;;;;;;;;8.38;80.80;100549.89;106304;1258;60119;-80
2023/11/13 08:26:08;;;;;;;;;;;;;;;8.47;80.58;100550.53;106277;1257;125829;-80
2023/11/13 08:28:35;;;;;;;;;;;;;;;8.55;80.43;100554.79;106286;1258;64875;-80
2023/11/13 08:31:03;;;;;;;;;;;;;;;8.65;80.32;100550.53;106183;1257;125327;-81
2023/11/13 08:33:30;;;;;;;;;;;;;;;8.75;80.21;100553.98;106276;1257;62219;-81
2023/11/13 08:35:59;;;;;;;;;;;;;;;8.83;80.03;100555.06;106170;1261;60433;-81
2023/11/13 08:38:26;;;;;;;;;;;;;;;8.89;79.79;100555.09;106247;1264;125180;-81
2023/11/13 08:40:55;;;;;;;;;;;;;;;8.94;79.62;100558.73;106304;1263;66350;-81
2023/11/13 08:43:22;;;;;;;;;;;;;;;9.00;79.35;100559.94;106179;1263;125216;-81
2023/11/13 08:45:48;;;;;;;;;;;;;;;9.01;79.02;100560.67;106324;1260;62114;-81
2023/11/13 08:48:15;;;;;;;;;;;;;;;8.98;78.67;100561.10;106309;1263;62059;-81
2023/11/13 08:50:44;;;;;;;;;;;;;;;8.95;78.55;100566.81;106380;1263;124608;-81
2023/11/13 08:53:11;;;;;;;;;;;;;;;8.94;78.34;100569.21;106387;1261;64740;-81
2023/11/13 08:55:39;;;;;;;;;;;;;;;8.92;78.28;100568.30;106277;1260;125360;-86
2023/11/13 08:58:06;;;;;;;;;;;;;;;8.88;78.04;100569.92;106172;1260;62069;-85
2023/11/13 09:00:41;;;;;;;;;;;;;;;8.86;78.19;100572.84;106206;1261;124652;-85
2023/11/13 09:03:15;;;;;;;;;;;;;;;8.84;77.99;100569.27;106296;1261;75209;-83
2023/11/13 09:05:42;;;;;;;;;;;;;;;8.80;77.91;100571.45;106295;1260;66156;-81
2023/11/13 09:08:09;;;;;;;;;;;;;;;8.77;77.98;100574.33;106078;1260;126225;-85
2023/11/13 09:10:37;;;;;;;;;;;;;;;8.73;77.87;100574.76;106398;1263;62101;-86
2023/11/13 09:13:04;;;;;;;;;;;;;;;8.68;77.79;100572.33;106309;1263;125023;-85
2023/11/13 09:15:32;;;;;;;;;;;;;;;8.63;77.73;100575.14;106345;1261;75473;-86
2023/11/13 09:18:01;;;;;;;;;;;;;;;8.59;77.68;100575.02;106342;1257;64950;-85
2023/11/13 09:20:29;;;;;;;;;;;;;;;8.58;77.70;100575.86;106258;1260;179015;-85
2023/11/13 09:22:55;;;;;;;;;;;;;;;8.58;77.75;100573.78;106308;1259;60330;-85
2023/11/13 09:25:22;;;;;;;;;;;;;;;8.58;77.61;100576.39;106276;1264;125449;-85
2023/11/13 09:27:51;;;;;;;;;;;;;;;8.60;77.76;100577.84;106292;1260;75518;-81
2023/11/13 09:30:18;;;;;;;;;;;;;;;8.65;77.60;100578.88;106416;1263;66182;-81
2023/11/13 09:32:46;;;;;;;;;;;;;;;8.65;77.61;100576.77;106315;1261;74099;-81
2023/11/13 09:35:20;;;;;;;;;;;;;;;8.67;77.52;100581.71;106337;1260;62060;-80
2023/11/13 09:37:48;;;;;;;;;;;;;;;8.70;77.54;100583.23;106405;1257;125109;-81
2023/11/13 09:40:15;;;;;;;;;;;;;;;8.76;77.58;100581.14;106355;1260;74417;-81
2023/11/13 09:42:51;;;;;;;;;;;;;;;8.83;77.54;100578.19;106219;1257;125796;-80
2023/11/13 09:45:22;;;;;;;;;;;;;;;8.91;77.50;100582.61;106431;1261;72532;-81
2023/11/13 09:47:51;;;;;;;;;;;;;;;8.97;77.25;100582.80;106236;1257;62133;-81
2023/11/13 09:50:20;;;;;;;;;;;;;;;9.02;77.17;100580.30;106210;1257;124404;-85
2023/11/13 09:52:48;;;;;;;;;;;;;;;9.05;76.94;100579.52;106468;1261;75037;-80
2023/11/13 09:55:18;;;;;;;;;;;;;;;9.08;76.72;100578.02;106223;1257;124283;-81
2023/11/13 09:57:46;;;;;;;;;;;;;;;9.06;76.55;100574.11;106278;1264;71611;-81
2023/11/13 10:00:16;;;;;;;;;;;;;;;9.07;76.42;100577.10;106332;1260;60466;-80
2023/11/13 10:02:44;;;;;;;;;;;;;;;9.07;76.35;100576.42;106382;1257;124498;-81
2023/11/13 10:05:12;;;;;;;;;;;;;;;9.09;76.36;100577.19;106274;1258;75518;-80
2023/11/13 10:07:42;;;;;;;;;;;;;;;9.15;76.40;100581.38;106227;1257;124498;-80
2023/11/13 10:10:13;;;;;;;;;;;;;;;9.15;76.32;100580.51;106317;1261;73122;-81
2023/11/13 10:12:40;;;;;;;;;;;;;;;9.16;76.22;100583.15;106178;1257;124833;-80
2023/11/13 10:15:12;;;;;;;;;;;;;;;9.14;76.04;100581.36;106444;1257;62141;-80
2023/11/13 10:17:48;;;;;;;;;;;;;;;9.11;75.80;100580.39;106351;1264;75273;-81
2023/11/13 10:20:19;;;;;;;;;;;;;;;9.06;75.65;100583.73;106204;1257;125968;-80
2023/11/13 10:22:59;;;;;;;;;;;;;;;9.02;75.59;100579.79;106279;1257;71730;-80
2023/11/13 10:25:27;;;;;;;;;;;;;;;9.02;75.65;100575.39;106242;1260;125096;-82
2023/11/13 10:28:01;;;;;;;;;;;;;;;9.03;75.70;100575.79;106540;1257;62136;-80
2023/11/13 10:30:29;;;;;;;;;;;;;;;9.03;75.45;100575.61;106288;1263;125235;-80
2023/11/13 10:32:57;;;;;;;;;;;;;;;9.04;75.62;100577.22;106406;1258;64807;-80
2023/11/13 10:35:27;;;;;;;;;;;;;;;9.11;75.72;100572.84;106289;1257;72689;-81
2023/11/13 10:37:55;;;;;;;;;;;;;;;9.15;75.57;100576.30;106095;1261;125325;-81
2023/11/13 10:40:28;;;;;;;;;;;;;;;9.20;75.46;100570.30;106274;1263;61985;-82
2023/11/13 10:42:55;;;;;;;;;;;;;;;9.32;75.73;100567.65;106213;1257;125388;-80
2023/11/13 10:45:22;;;;;;;;;;;;;;;9.42;75.55;100570.02;106265;1258;66063;-81
2023/11/13 10:47:51;;;;;;;;;;;;;;;9.45;75.28;100566.25;106279;1258;72360;-80
2023/11/13 10:50:23;;;;;;;;;;;;;;;9.47;75.15;100561.77;106159;1257;125414;-80
2023/11/13 10:52:50;;;;;;;;;;;;;;;9.48;75.11;100561.95;106384;1258;60315;-82
2023/11/13 10:55:19;;;;;;;;;;;;;;;9.49;75.04;100561.81;106066;1258;125025;-83
2023/11/13 10:57:46;;;;;;;;;;;;;;;9.50;74.99;100559.20;106345;1257;63969;-85
2023/11/13 11:00:13;;;;;;;;;;;;;;;9.47;74.82;100561.55;106372;1257;72778;-87
2023/11/13 11:02:45;;;;;;;;;;;;;;;9.40;74.67;100560.34;106274;1257;124208;-86
2023/11/13 11:05:19;;;;;;;;;;;;;;;9.37;74.79;100560.42;106449;1257;62255;-87
2023/11/13 11:07:53;;;;;;;;;;;;;;;9.40;74.78;100560.51;106322;1257;124485;-84
2023/11/13 11:10:25;;;;;;;;;;;;;;;9.46;74.85;100560.15;106317;1259;66291;-86
2023/11/13 11:12:53;;;;;;;;;;;;;;;9.49;74.74;100559.71;106175;1257;124535;-86
2023/11/13 11:15:32;;;;;;;;;;;;;;;9.51;74.48;100559.58;106444;1258;62049;-84
2023/11/13 11:18:19;;;;;;;;;;;;;;;9.50;74.44;100553.78;106381;1257;62263;-86
2023/11/13 11:21:01;;;;;;;;;;;;;;;9.50;74.35;100551.48;106448;1257;124488;-86
2023/11/13 11:23:32;;;;;;;;;;;;;;;9.51;74.27;100556.24;106443;1257;65957;-80
2023/11/13 11:26:01;;;;;;;;;;;;;;;9.50;74.17;100553.95;106326;1258;125323;-80
2023/11/13 11:28:38;;;;;;;;;;;;;;;9.45;74.00;100553.28;106482;1258;60713;-80
2023/11/13 11:31:24;;;;;;;;;;;;;;;9.42;74.04;100550.43;106279;1258;125213;-81
2023/11/13 11:33:51;;;;;;;;;;;;;;;9.43;74.01;100552.55;106458;1258;74959;-80
2023/11/13 11:36:17;;;;;;;;;;;;;;;9.43;73.98;100549.55;106270;1256;66109;-81
2023/11/13 11:38:44;;;;;;;;;;;;;;;9.44;73.82;100552.03;106430;1257;124911;-81
2023/11/13 11:41:30;;;;;;;;;;;;;;;9.46;73.85;100550.70;106318;1257;61996;-81
2023/11/13 11:43:58;;;;;;;;;;;;;;;9.51;73.88;100547.49;106260;1261;125430;-82
2023/11/13 11:46:26;;;;;;;;;;;;;;;9.52;73.82;100540.86;106310;1258;75291;-81
2023/11/13 11:48:52;;;;;;;;;;;;;;;9.56;73.83;100539.21;106207;1256;125268;-81
2023/11/13 11:51:22;;;;;;;;;;;;;;;9.58;73.84;100533.48;106324;1257;72820;-82
2023/11/13 11:53:58;;;;;;;;;;;;;;;9.60;73.74;100537.20;106359;1257;62069;-81
2023/11/13 11:56:25;;;;;;;;;;;;;;;9.56;73.66;100533.95;106441;1257;124763;-81
2023/11/13 11:58:52;;;;;;;;;;;;;;;9.51;73.62;100534.02;106328;1257;74353;-81
2023/11/13 12:01:19;;;;;;;;;;;;;;;9.49;73.56;100533.42;106236;1257;124385;-81
2023/11/13 12:03:47;;;;;;;;;;;;;;;9.44;73.53;100534.34;106326;1257;72887;-81
2023/11/13 12:06:14;;;;;;;;;;;;;;;9.40;73.46;100528.27;106332;1258;62158;-81
2023/11/13 12:08:41;;;;;;;;;;;;;;;9.37;73.67;100524.17;106181;1258;124877;-81
2023/11/13 12:11:09;;;;;;;;;;;;;;;9.33;73.61;100523.22;106395;1257;75192;-81
2023/11/13 12:13:35;;;;;;;;;;;;;;;9.30;73.72;100520.84;106431;1257;124285;-80
2023/11/13 12:16:02;;;;;;;;;;;;;;;9.27;73.76;100519.20;106348;1256;72719;-81
2023/11/13 12:18:30;;;;;;;;;;;;;;;9.29;74.02;100518.90;106194;1264;124725;-80
2023/11/13 12:20:57;;;;;;;;;;;;;;;9.32;74.05;100524.75;106439;1257;62154;-80
2023/11/13 12:23:23;;;;;;;;;;;;;;;9.34;74.09;100516.58;106468;1256;75177;-81
2023/11/13 12:25:50;;;;;;;;;;;;;;;9.36;74.09;100515.41;106242;1258;125373;-80
2023/11/13 12:28:17;;;;;;;;;;;;;;;9.31;73.83;100513.88;106343;1257;71734;-81
2023/11/13 12:30:43;;;;;;;;;;;;;;;9.26;73.86;100509.86;106365;1256;124589;-81
2023/11/13 12:33:12;;;;;;;;;;;;;;;9.26;74.01;100508.48;106236;1260;62203;-81
2023/11/13 12:35:39;;;;;;;;;;;;;;;9.28;73.88;100505.02;106369;1257;74162;-80